Time;durP1;ratioP1;P1;durP2;ratioP2;P2;SDS_P1;SDS_P2;PMS_P1;PMS_P2;Temp;Humidity;BMP_temperature;BMP_pressure;BME280_temperature;BME280_humidity;BME280_pressure;Samples;Min_cycle;Max_cycle;Signal;HPM_P1;HPM_P2
2021/11/17 02:27:49;;;;;;;27.30;9.35;;;7.00;99.90;;;;;;6241050;22;20458;-61
2021/11/17 02:30:20;;;;;;;43.85;12.63;;;7.00;99.90;;;;;;6238441;22;20637;-62
2021/11/17 02:33:17;;;;;;;34.17;11.73;;;7.00;99.90;;;;;;6240211;22;20016;-62
2021/11/17 02:36:12;;;;;;;37.55;12.07;;;7.10;99.90;;;;;;6238650;23;20015;-65
2021/11/17 02:38:58;;;;;;;33.00;11.40;;;7.10;99.90;;;;;;6196263;22;20016;-63
2021/11/17 02:41:36;;;;;;;35.60;13.05;;;7.10;99.90;;;;;;6239889;22;20079;-61
2021/11/17 02:44:17;;;;;;;32.42;10.32;;;7.00;99.90;;;;;;6238139;22;20095;-63
2021/11/17 02:47:21;;;;;;;37.28;12.18;;;7.00;99.90;;;;;;6241003;22;20016;-62
2021/11/17 02:50:10;;;;;;;38.55;12.00;;;7.10;99.90;;;;;;6239874;22;20020;-62
2021/11/17 02:53:16;;;;;;;34.30;10.98;;;7.10;99.90;;;;;;6238579;22;20094;-63
2021/11/17 02:55:57;;;;;;;36.15;10.50;;;7.10;99.90;;;;;;6240364;22;20043;-63
2021/11/17 02:58:22;;;;;;;31.45;10.10;;;7.10;99.90;;;;;;6238162;22;20046;-63
2021/11/17 03:00:51;;;;;;;35.78;10.32;;;7.10;99.90;;;;;;6239978;22;20020;-62
2021/11/17 03:03:16;;;;;;;33.22;10.48;;;7.10;99.90;;;;;;6238122;22;20016;-63
2021/11/17 03:06:00;;;;;;;40.60;12.18;;;7.10;99.90;;;;;;6241088;22;20016;-62
2021/11/17 03:08:40;;;;;;;33.40;10.25;;;7.10;99.90;;;;;;6238070;22;20037;-62
2021/11/17 03:11:30;;;;;;;39.60;10.75;;;7.20;99.90;;;;;;6239580;22;20036;-63
2021/11/17 03:14:23;;;;;;;37.35;11.18;;;7.20;99.90;;;;;;6238231;22;20020;-65
2021/11/17 03:17:23;;;;;;;32.63;11.85;;;7.20;99.90;;;;;;6239906;22;20012;-63
2021/11/17 03:19:48;;;;;;;32.47;10.02;;;7.10;99.90;;;;;;6239519;23;20103;-63
2021/11/17 03:22:45;;;;;;;46.40;12.05;;;7.10;99.90;;;;;;6239567;23;20689;-62
2021/11/17 03:25:55;;;;;;;33.22;10.77;;;7.10;99.90;;;;;;6215531;22;20019;-66
2021/11/17 03:28:51;;;;;;;34.45;11.70;;;7.10;99.90;;;;;;6211439;22;20016;-62
2021/11/17 03:31:47;;;;;;;38.33;11.38;;;7.20;99.90;;;;;;6239023;22;20458;-62
2021/11/17 03:34:49;;;;;;;34.25;9.90;;;7.20;99.90;;;;;;6189745;23;20537;-63
2021/11/17 03:37:27;;;;;;;33.75;10.13;;;7.20;99.90;;;;;;6238006;22;20076;-62
2021/11/17 03:39:55;;;;;;;29.77;9.80;;;7.20;99.90;;;;;;6240024;22;20073;-64
2021/11/17 03:42:26;;;;;;;42.58;12.23;;;7.10;99.90;;;;;;6239299;22;20338;-62
2021/11/17 03:45:13;;;;;;;36.42;11.65;;;7.10;99.90;;;;;;6239937;22;20008;-62
2021/11/17 03:47:42;;;;;;;26.50;9.25;;;7.20;99.90;;;;;;6238553;22;20012;-62
2021/11/17 03:50:19;;;;;;;30.42;10.00;;;7.20;99.90;;;;;;6240117;22;20533;-61
2021/11/17 03:52:57;;;;;;;30.73;9.85;;;7.10;99.90;;;;;;6239120;22;20084;-62
2021/11/17 03:55:35;;;;;;;34.35;10.27;;;7.10;99.90;;;;;;6239948;22;20106;-62
2021/11/17 03:58:13;;;;;;;37.03;10.70;;;7.10;99.90;;;;;;6238694;22;20031;-63
2021/11/17 04:01:12;;;;;;;34.13;10.10;;;7.10;99.90;;;;;;6239718;22;20020;-62
2021/11/17 04:03:38;;;;;;;36.58;10.27;;;7.10;99.90;;;;;;6238281;23;20012;-64
2021/11/17 04:06:25;;;;;;;41.17;12.25;;;7.10;99.90;;;;;;6239578;23;20524;-63
2021/11/17 04:09:11;;;;;;;34.95;10.93;;;7.10;99.90;;;;;;6212590;23;20019;-61
2021/11/17 04:11:46;;;;;;;34.65;11.43;;;7.10;99.90;;;;;;6239441;22;20435;-62
2021/11/17 04:14:18;;;;;;;31.85;10.77;;;7.10;99.90;;;;;;6239509;22;20016;-64
2021/11/17 04:17:13;;;;;;;33.95;10.38;;;7.00;99.90;;;;;;6239634;22;20012;-67
2021/11/17 04:19:54;;;;;;;35.67;10.75;;;7.00;99.90;;;;;;6239839;23;20016;-62
2021/11/17 04:22:44;;;;;;;39.10;12.85;;;7.00;99.90;;;;;;6238923;23;20027;-63
2021/11/17 04:25:43;;;;;;;35.35;11.32;;;7.00;99.90;;;;;;6239620;22;20079;-62
2021/11/17 04:28:25;;;;;;;37.05;10.65;;;6.90;99.90;;;;;;6237772;23;20058;-63
2021/11/17 04:31:12;;;;;;;33.38;11.00;;;6.90;99.90;;;;;;6239391;22;20023;-62
2021/11/17 04:33:51;;;;;;;35.55;10.88;;;6.90;99.90;;;;;;6239704;22;20066;-61
2021/11/17 04:36:32;;;;;;;34.58;10.23;;;6.90;99.90;;;;;;6237740;22;20006;-62
2021/11/17 04:39:03;;;;;;;39.60;10.85;;;6.80;99.90;;;;;;6239771;22;20020;-61
2021/11/17 04:41:41;;;;;;;31.30;10.15;;;6.80;99.90;;;;;;6239401;22;20016;-63
2021/11/17 04:44:09;;;;;;;35.63;10.40;;;6.80;99.90;;;;;;6239580;22;20031;-62
2021/11/17 04:47:23;;;;;;;29.90;9.82;;;6.80;99.90;;;;;;6239669;22;20008;-62
2021/11/17 04:49:54;;;;;;;39.25;10.55;;;6.80;99.90;;;;;;6145781;23;20481;-63
2021/11/17 04:52:38;;;;;;;37.08;11.50;;;6.90;99.90;;;;;;6146044;23;20440;-62
2021/11/17 04:55:16;;;;;;;37.00;10.80;;;6.90;99.90;;;;;;6210586;22;20012;-62
2021/11/17 04:58:07;;;;;;;41.00;11.48;;;7.00;99.90;;;;;;6240175;23;20366;-62
2021/11/17 05:00:44;;;;;;;32.60;9.45;;;7.00;99.90;;;;;;6241122;22;20074;-62
2021/11/17 05:03:25;;;;;;;34.28;10.68;;;7.10;99.90;;;;;;6239624;23;20026;-62
2021/11/17 05:06:02;;;;;;;40.22;10.40;;;7.00;99.90;;;;;;6241051;22;20016;-62
2021/11/17 05:08:52;;;;;;;31.13;10.57;;;7.10;99.90;;;;;;6240277;22;20407;-63
2021/11/17 05:11:49;;;;;;;31.55;9.55;;;7.00;99.90;;;;;;6239099;22;20009;-63
2021/11/17 05:14:33;;;;;;;40.40;11.15;;;7.10;99.90;;;;;;6241202;22;20038;-62
2021/11/17 05:17:20;;;;;;;34.00;11.38;;;7.10;99.90;;;;;;6216723;22;20008;-62
2021/11/17 05:19:45;;;;;;;35.45;11.25;;;7.10;99.90;;;;;;6241067;22;20016;-62
2021/11/17 05:22:23;;;;;;;33.38;10.45;;;7.10;99.90;;;;;;6240246;22;20079;-64
2021/11/17 05:25:00;;;;;;;35.67;11.02;;;7.10;99.90;;;;;;6241153;22;20023;-61
2021/11/17 05:27:38;;;;;;;34.70;10.98;;;7.10;99.90;;;;;;6241056;22;20558;-62
2021/11/17 05:30:35;;;;;;;35.40;11.48;;;7.10;99.90;;;;;;6241077;22;20042;-62
2021/11/17 05:33:21;;;;;;;35.33;11.18;;;7.20;99.90;;;;;;6240126;22;20000;-62
2021/11/17 05:36:12;;;;;;;28.73;8.95;;;7.30;99.90;;;;;;6239099;22;20011;-61
2021/11/17 05:38:57;;;;;;;32.60;10.20;;;7.20;99.90;;;;;;6241375;22;20016;-62
2021/11/17 05:41:29;;;;;;;38.22;11.23;;;7.20;99.90;;;;;;6214909;22;20086;-62
2021/11/17 05:44:00;;;;;;;38.55;11.93;;;7.30;99.90;;;;;;6240758;22;20004;-61
2021/11/17 05:46:59;;;;;;;34.78;10.05;;;7.30;99.90;;;;;;6240483;22;20015;-63
2021/11/17 05:49:37;;;;;;;40.67;11.85;;;7.30;99.90;;;;;;6237637;22;20008;-62
2021/11/17 05:52:05;;;;;;;36.85;11.10;;;7.30;99.90;;;;;;6240545;22;20079;-63
2021/11/17 05:54:53;;;;;;;34.50;10.68;;;7.30;99.90;;;;;;6240840;22;20012;-62
2021/11/17 05:57:31;;;;;;;41.83;12.43;;;7.30;99.90;;;;;;6224140;22;20027;-63
2021/11/17 06:00:22;;;;;;;39.67;11.25;;;7.30;99.90;;;;;;6232499;22;20008;-63
2021/11/17 06:02:56;;;;;;;36.05;11.13;;;7.30;99.90;;;;;;6208652;22;20031;-61
2021/11/17 06:05:21;;;;;;;35.75;10.93;;;7.40;99.90;;;;;;6209543;22;20577;-62
2021/11/17 06:07:47;;;;;;;39.13;11.27;;;7.40;99.90;;;;;;6237244;22;20035;-62
2021/11/17 06:10:20;;;;;;;36.97;11.05;;;7.40;99.90;;;;;;6236984;22;20047;-63
2021/11/17 06:12:47;;;;;;;38.05;12.07;;;7.40;99.90;;;;;;6237515;22;20502;-63
2021/11/17 06:15:15;;;;;;;45.22;12.32;;;7.40;99.90;;;;;;6237401;22;20397;-61
2021/11/17 06:17:44;;;;;;;34.67;11.50;;;7.50;99.90;;;;;;6238202;22;20008;-61
2021/11/17 06:20:12;;;;;;;42.83;12.20;;;7.50;99.90;;;;;;6236553;22;20451;-63
2021/11/17 06:22:40;;;;;;;33.10;12.63;;;7.50;99.90;;;;;;6237182;22;20081;-62
2021/11/17 06:25:10;;;;;;;40.45;11.63;;;7.50;99.90;;;;;;6236364;22;20066;-62
2021/11/17 06:27:39;;;;;;;48.97;13.00;;;7.50;99.90;;;;;;6237585;22;20004;-62
2021/11/17 06:30:09;;;;;;;39.42;12.05;;;7.50;99.90;;;;;;6237255;22;20008;-62
2021/11/17 06:32:34;;;;;;;40.38;11.45;;;7.50;99.90;;;;;;6237466;22;20011;-62
2021/11/17 06:35:02;;;;;;;41.75;12.02;;;7.50;99.90;;;;;;6237704;22;20012;-62
2021/11/17 06:37:29;;;;;;;42.80;12.55;;;7.50;99.90;;;;;;6237307;22;20014;-63
2021/11/17 06:40:00;;;;;;;40.08;12.90;;;7.50;99.90;;;;;;6236249;22;20032;-62
2021/11/17 06:42:34;;;;;;;37.25;11.60;;;7.50;99.90;;;;;;6235551;22;20028;-62
2021/11/17 06:45:01;;;;;;;44.47;13.13;;;7.60;99.90;;;;;;6237228;22;20004;-63
2021/11/17 06:47:27;;;;;;;42.75;13.57;;;7.60;99.90;;;;;;6237769;22;20027;-61
2021/11/17 06:49:53;;;;;;;47.90;15.80;;;7.70;99.90;;;;;;6237332;22;20011;-62
2021/11/17 06:52:20;;;;;;;44.80;14.15;;;7.70;99.90;;;;;;6237354;22;20375;-63
2021/11/17 06:54:46;;;;;;;41.45;12.43;;;7.60;99.90;;;;;;6237529;22;20031;-61
2021/11/17 06:57:11;;;;;;;49.33;13.52;;;7.60;99.90;;;;;;6238459;22;20004;-61
2021/11/17 06:59:37;;;;;;;39.55;13.23;;;7.60;99.90;;;;;;6237380;22;20065;-61
2021/11/17 07:02:06;;;;;;;48.95;14.48;;;7.70;99.90;;;;;;6236256;22;20034;-62
2021/11/17 07:04:33;;;;;;;42.92;12.13;;;7.70;99.90;;;;;;6237852;22;20751;-62
2021/11/17 07:06:59;;;;;;;46.72;14.23;;;7.60;99.90;;;;;;6237111;22;20063;-62
2021/11/17 07:09:25;;;;;;;37.00;12.65;;;7.70;99.90;;;;;;6237654;22;20428;-61
2021/11/17 07:11:51;;;;;;;50.50;14.48;;;7.70;99.90;;;;;;6235832;22;20016;-62
2021/11/17 07:14:21;;;;;;;38.13;13.00;;;7.70;99.90;;;;;;6237415;22;20043;-62
2021/11/17 07:16:46;;;;;;;51.08;13.85;;;7.70;99.90;;;;;;6237323;22;20684;-62
2021/11/17 07:19:12;;;;;;;43.75;14.85;;;7.70;99.90;;;;;;6235297;22;20020;-65
2021/11/17 07:21:40;;;;;;;46.67;13.95;;;7.80;99.90;;;;;;6237162;22;20012;-63
2021/11/17 07:24:06;;;;;;;44.40;13.93;;;7.80;99.90;;;;;;6236298;22;20011;-62
2021/11/17 07:26:32;;;;;;;50.25;14.07;;;7.80;99.90;;;;;;6237290;22;20024;-63
2021/11/17 07:28:58;;;;;;;50.78;14.90;;;7.80;99.90;;;;;;6238491;22;20354;-63
2021/11/17 07:31:24;;;;;;;48.45;14.40;;;7.80;99.90;;;;;;6237918;22;20462;-62
2021/11/17 07:33:49;;;;;;;51.05;16.20;;;7.90;99.90;;;;;;6238430;22;20012;-63
2021/11/17 07:36:16;;;;;;;55.17;16.02;;;8.00;99.90;;;;;;6237126;22;20027;-63
2021/11/17 07:38:42;;;;;;;61.05;17.08;;;8.00;99.90;;;;;;6236597;22;20045;-63
2021/11/17 07:41:08;;;;;;;58.17;16.10;;;8.00;99.90;;;;;;6237116;22;20073;-63
2021/11/17 07:43:34;;;;;;;54.78;16.75;;;8.00;99.90;;;;;;6234495;22;20498;-62
2021/11/17 07:46:00;;;;;;;51.75;17.02;;;8.00;99.90;;;;;;6237065;22;20020;-64
2021/11/17 07:48:27;;;;;;;62.00;17.85;;;8.10;99.90;;;;;;6236654;22;20339;-63
2021/11/17 07:50:55;;;;;;;54.10;15.55;;;8.10;99.90;;;;;;6237568;22;20009;-62
2021/11/17 07:53:23;;;;;;;60.67;18.15;;;8.10;99.90;;;;;;6236287;22;20015;-62
2021/11/17 07:55:52;;;;;;;63.33;16.95;;;8.10;99.90;;;;;;6236533;22;20015;-62
2021/11/17 07:58:20;;;;;;;72.38;18.05;;;8.10;99.90;;;;;;6235141;22;20086;-62
2021/11/17 08:00:50;;;;;;;71.20;18.77;;;8.10;99.90;;;;;;6237181;22;20012;-64
2021/11/17 08:03:17;;;;;;;61.70;17.77;;;8.10;99.90;;;;;;6234411;22;20036;-62
2021/11/17 08:05:45;;;;;;;64.15;17.67;;;8.10;99.90;;;;;;6237575;22;20095;-61
2021/11/17 08:08:11;;;;;;;65.10;17.70;;;8.10;99.90;;;;;;6236898;22;20004;-63
2021/11/17 08:10:39;;;;;;;59.97;16.23;;;8.10;99.90;;;;;;6236660;22;20047;-62
2021/11/17 08:13:05;;;;;;;61.38;17.85;;;8.10;99.90;;;;;;6235584;22;20023;-63
2021/11/17 08:15:32;;;;;;;60.47;15.70;;;8.20;99.90;;;;;;6237071;22;20015;-62
2021/11/17 08:17:57;;;;;;;64.43;16.98;;;8.20;99.90;;;;;;6235363;22;20016;-62
2021/11/17 08:20:23;;;;;;;54.05;15.68;;;8.30;99.90;;;;;;6237180;22;20008;-62
2021/11/17 08:22:52;;;;;;;67.90;17.23;;;8.30;99.90;;;;;;6237314;22;20012;-62
2021/11/17 08:25:20;;;;;;;61.95;18.23;;;8.30;99.90;;;;;;6235142;22;20052;-64
2021/11/17 08:27:46;;;;;;;63.88;17.20;;;8.30;99.90;;;;;;6235060;22;20009;-64
2021/11/17 08:30:15;;;;;;;52.13;15.13;;;8.30;99.90;;;;;;6236917;22;20038;-62
2021/11/17 08:32:43;;;;;;;46.15;14.35;;;8.30;99.90;;;;;;6235005;23;20008;-62
2021/11/17 08:35:12;;;;;;;54.70;16.80;;;8.40;99.90;;;;;;6237104;22;20728;-62
2021/11/17 08:37:38;;;;;;;61.65;16.65;;;8.50;99.90;;;;;;6239251;22;20028;-63
2021/11/17 08:40:09;;;;;;;56.30;16.63;;;8.50;99.90;;;;;;6238463;22;20087;-62
2021/11/17 08:42:35;;;;;;;59.88;16.40;;;8.50;99.90;;;;;;6238783;22;20009;-62
2021/11/17 08:45:01;;;;;;;50.33;15.38;;;8.60;99.90;;;;;;6239531;22;20022;-62
2021/11/17 08:47:27;;;;;;;59.33;16.85;;;8.60;99.90;;;;;;6238443;22;20004;-63
2021/11/17 08:49:54;;;;;;;53.08;15.73;;;8.70;99.90;;;;;;6239281;22;20062;-64
2021/11/17 08:52:23;;;;;;;56.03;16.17;;;8.70;99.90;;;;;;6241366;22;20000;-64
2021/11/17 08:54:49;;;;;;;56.05;15.13;;;8.70;99.90;;;;;;6242756;22;20012;-63
2021/11/17 08:57:16;;;;;;;54.92;15.90;;;8.80;99.90;;;;;;6240441;22;20000;-62
2021/11/17 08:59:43;;;;;;;60.97;17.65;;;8.90;99.90;;;;;;6239776;22;20044;-63
2021/11/17 09:02:08;;;;;;;51.75;17.75;;;9.00;99.90;;;;;;6240112;22;20012;-62
2021/11/17 09:04:34;;;;;;;60.88;16.35;;;9.00;99.90;;;;;;6239518;22;20426;-62
2021/11/17 09:07:00;;;;;;;58.60;16.90;;;9.00;99.90;;;;;;6239772;22;20011;-62
2021/11/17 09:09:25;;;;;;;55.58;16.92;;;9.10;99.90;;;;;;6238865;22;20017;-62
2021/11/17 09:11:52;;;;;;;59.80;16.55;;;9.10;99.90;;;;;;6238956;22;20342;-62
2021/11/17 09:14:18;;;;;;;62.92;17.40;;;9.10;99.90;;;;;;6239892;22;20350;-63
2021/11/17 09:16:44;;;;;;;56.15;16.08;;;9.10;99.90;;;;;;6239707;22;20010;-62
2021/11/17 09:19:09;;;;;;;55.63;16.42;;;9.00;99.90;;;;;;6237236;22;20119;-62
2021/11/17 09:21:39;;;;;;;52.97;15.52;;;9.10;99.90;;;;;;6238950;22;20014;-62
2021/11/17 09:24:06;;;;;;;56.55;16.00;;;9.10;99.90;;;;;;6239027;22;20004;-63
2021/11/17 09:26:33;;;;;;;55.75;17.55;;;9.10;99.90;;;;;;6239494;22;21454;-62
2021/11/17 09:29:01;;;;;;;55.13;17.40;;;9.10;99.90;;;;;;6237773;22;20008;-62
2021/11/17 09:31:29;;;;;;;62.50;18.20;;;9.20;99.90;;;;;;6239479;22;20137;-62
2021/11/17 09:33:55;;;;;;;55.17;17.20;;;9.20;99.90;;;;;;6238732;22;20012;-64
2021/11/17 09:36:24;;;;;;;61.22;18.40;;;9.30;99.90;;;;;;6239173;22;20005;-61
2021/11/17 09:38:51;;;;;;;58.85;16.60;;;9.30;99.90;;;;;;6238400;22;20016;-62
2021/11/17 09:41:22;;;;;;;55.75;17.38;;;9.30;99.90;;;;;;6240049;22;20016;-62
2021/11/17 09:43:50;;;;;;;50.28;17.02;;;9.30;99.90;;;;;;6241605;22;20009;-61
2021/11/17 09:46:20;;;;;;;62.67;17.60;;;9.40;99.90;;;;;;6238233;22;20012;-63
2021/11/17 09:48:52;;;;;;;56.10;17.20;;;9.40;99.90;;;;;;6240298;22;20009;-65
2021/11/17 09:51:25;;;;;;;58.42;18.38;;;9.40;99.90;;;;;;6238785;22;20235;-64
2021/11/17 09:54:05;;;;;;;65.05;19.10;;;9.50;99.90;;;;;;6240932;22;20012;-63
2021/11/17 09:56:40;;;;;;;52.20;16.30;;;9.60;99.90;;;;;;6242196;22;20770;-62
2021/11/17 09:59:13;;;;;;;52.28;16.25;;;9.70;99.90;;;;;;6237331;22;20012;-62
2021/11/17 10:01:48;;;;;;;50.10;16.60;;;9.80;99.90;;;;;;6237504;22;20058;-63
2021/11/17 10:04:17;;;;;;;47.05;17.15;;;9.80;99.90;;;;;;6237622;23;20019;-63
2021/11/17 10:14:56;;;;;;;50.97;15.50;;;10.10;99.90;;;;;;6239071;22;20012;-62
2021/11/17 10:17:32;;;;;;;45.50;15.10;;;10.20;99.90;;;;;;6238036;22;20008;-62
2021/11/17 10:20:27;;;;;;;41.75;13.80;;;10.30;99.90;;;;;;6237676;22;20350;-62
2021/11/17 10:23:04;;;;;;;38.22;14.52;;;10.30;99.90;;;;;;6232831;22;20008;-62
2021/11/17 10:25:41;;;;;;;47.00;15.40;;;10.40;99.90;;;;;;6237710;22;20422;-62
2021/11/17 10:28:07;;;;;;;33.75;12.75;;;10.40;99.90;;;;;;6236378;22;20016;-62
2021/11/17 10:30:38;;;;;;;41.28;13.93;;;10.50;99.90;;;;;;6237737;22;20342;-61
2021/11/17 10:33:38;;;;;;;40.70;13.48;;;10.50;99.90;;;;;;6236361;22;20091;-62
2021/11/17 10:36:16;;;;;;;40.27;12.60;;;10.50;99.90;;;;;;6237719;22;20004;-62
2021/11/17 10:38:47;;;;;;;40.17;13.40;;;10.50;99.90;;;;;;6238124;22;20020;-63
2021/11/17 10:41:26;;;;;;;36.08;13.35;;;10.60;99.90;;;;;;6235581;22;20669;-61
2021/11/17 10:44:03;;;;;;;35.25;12.32;;;10.80;99.90;;;;;;6235428;22;20004;-62
2021/11/17 10:46:48;;;;;;;37.75;11.95;;;10.90;99.90;;;;;;6237661;22;20004;-62
2021/11/17 10:49:17;;;;;;;35.30;11.85;;;10.90;99.90;;;;;;6234914;22;20012;-63
2021/11/17 10:51:54;;;;;;;34.88;11.00;;;11.00;99.90;;;;;;6237836;22;20052;-62
2021/11/17 10:54:23;;;;;;;32.50;10.85;;;11.00;99.90;;;;;;6238286;22;20005;-64
2021/11/17 10:57:09;;;;;;;25.63;9.18;;;11.00;99.90;;;;;;6240895;22;20012;-63
2021/11/17 10:59:35;;;;;;;37.55;11.85;;;11.10;99.90;;;;;;6239685;22;20012;-62
2021/11/17 11:02:04;;;;;;;34.70;11.15;;;11.10;99.90;;;;;;6240549;22;20020;-61
2021/11/17 11:04:58;;;;;;;30.55;11.13;;;11.20;99.90;;;;;;6239263;22;20087;-61
2021/11/17 11:07:40;;;;;;;35.30;11.05;;;11.40;99.90;;;;;;6236569;22;20008;-62
2021/11/17 11:10:15;;;;;;;28.27;8.85;;;11.50;99.90;;;;;;6235128;22;20410;-62
2021/11/17 11:12:43;;;;;;;23.23;8.45;;;11.80;99.90;;;;;;6237046;22;20024;-62
2021/11/17 11:15:13;;;;;;;18.02;6.68;;;11.90;99.90;;;;;;6237548;22;20015;-63
2021/11/17 11:18:09;;;;;;;20.75;6.43;;;12.10;99.90;;;;;;6237739;22;20020;-63
2021/11/17 11:20:41;;;;;;;9.43;3.58;;;12.10;99.90;;;;;;6190433;22;20357;-62
2021/11/17 11:23:12;;;;;;;21.00;3.38;;;12.20;99.90;;;;;;6236912;22;20004;-61
2021/11/17 11:26:00;;;;;;;9.80;2.13;;;12.20;99.90;;;;;;6234969;23;20012;-62
2021/11/17 11:28:44;;;;;;;8.50;2.70;;;12.20;99.90;;;;;;6236847;22;19999;-62
2021/11/17 11:31:10;;;;;;;8.40;1.67;;;11.90;99.90;;;;;;6234205;22;20008;-62
2021/11/17 11:33:49;;;;;;;14.77;1.83;;;11.80;99.90;;;;;;6236776;22;20015;-62
2021/11/17 11:36:15;;;;;;;14.63;2.40;;;11.70;99.90;;;;;;6235890;22;20004;-62
2021/11/17 11:38:50;;;;;;;7.90;1.40;;;11.60;99.90;;;;;;6237348;22;20027;-63
2021/11/17 11:41:39;;;;;;;7.65;1.17;;;11.50;99.90;;;;;;6235664;22;20453;-63
2021/11/17 11:44:17;;;;;;;6.03;0.93;;;11.50;99.90;;;;;;6236190;22;20076;-63
2021/11/17 11:46:44;;;;;;;5.32;1.60;;;11.50;99.90;;;;;;6236720;22;20015;-61
2021/11/17 11:49:48;;;;;;;13.45;2.10;;;11.40;99.90;;;;;;6236611;22;20012;-62
2021/11/17 11:52:23;;;;;;;15.70;1.55;;;11.50;99.90;;;;;;6236198;22;20016;-63
2021/11/17 11:54:53;;;;;;;17.83;1.77;;;11.40;99.90;;;;;;6235501;23;20090;-61
2021/11/17 11:57:44;;;;;;;18.73;1.52;;;11.40;99.90;;;;;;6236885;22;20342;-63
2021/11/17 12:00:59;;;;;;;14.93;2.13;;;11.40;99.90;;;;;;6238886;22;20062;-62
2021/11/17 12:03:28;;;;;;;21.98;3.60;;;11.40;99.90;;;;;;6146304;23;20009;-64
2021/11/17 12:06:16;;;;;;;19.23;1.65;;;11.10;99.90;;;;;;6231340;22;20442;-62
2021/11/17 12:08:51;;;;;;;16.00;2.13;;;11.10;99.90;;;;;;6239991;22;20079;-61
2021/11/17 12:11:28;;;;;;;15.15;2.90;;;11.10;99.90;;;;;;6237189;22;20703;-62
2021/11/17 12:14:11;;;;;;;12.02;1.52;;;11.20;99.90;;;;;;6239520;22;20008;-63
2021/11/17 12:16:47;;;;;;;23.10;3.22;;;11.50;99.90;;;;;;6237852;22;20004;-62
2021/11/17 12:19:34;;;;;;;11.57;2.28;;;11.70;99.90;;;;;;6238012;22;20023;-62
2021/11/17 12:22:14;;;;;;;28.05;2.95;;;11.90;99.90;;;;;;6238986;22;20107;-62
2021/11/17 12:24:50;;;;;;;6.65;1.30;;;11.90;99.90;;;;;;6240021;22;20138;-62
2021/11/17 12:27:23;;;;;;;13.70;2.58;;;11.90;99.90;;;;;;6236950;22;20039;-64
2021/11/17 12:30:05;;;;;;;11.90;1.73;;;11.90;99.90;;;;;;6239673;22;20091;-62
2021/11/17 12:32:49;;;;;;;13.10;1.67;;;11.80;99.90;;;;;;6237169;22;20008;-62
2021/11/17 12:35:24;;;;;;;16.58;1.67;;;11.60;99.90;;;;;;6238950;22;20011;-62
2021/11/17 12:38:00;;;;;;;13.23;1.98;;;11.60;99.90;;;;;;6240044;22;20016;-62
2021/11/17 12:40:50;;;;;;;18.15;2.13;;;11.50;99.90;;;;;;6239651;22;20666;-62
2021/11/17 12:43:35;;;;;;;14.70;2.78;;;11.60;99.90;;;;;;6237285;22;20001;-62
2021/11/17 12:46:25;;;;;;;19.83;2.45;;;11.50;99.90;;;;;;6237440;22;20005;-64
2021/11/17 12:49:14;;;;;;;15.10;1.70;;;11.50;99.90;;;;;;6239906;22;20516;-62
2021/11/17 12:52:08;;;;;;;9.90;1.50;;;11.40;99.90;;;;;;6239864;22;20134;-63
2021/11/17 12:54:45;;;;;;;16.58;1.83;;;11.30;99.90;;;;;;6135457;22;20013;-62
2021/11/17 12:57:21;;;;;;;11.35;1.77;;;11.20;99.90;;;;;;6239406;22;20005;-61
2021/11/17 12:59:53;;;;;;;10.57;1.92;;;11.10;99.90;;;;;;6239891;22;20019;-63
2021/11/17 13:02:21;;;;;;;13.68;2.42;;;11.00;99.90;;;;;;6238745;22;20095;-64
2021/11/17 13:05:09;;;;;;;12.77;2.03;;;10.80;99.90;;;;;;6239786;22;20015;-62
2021/11/17 13:08:02;;;;;;;10.55;3.10;;;10.70;99.90;;;;;;6222999;22;20087;-62
2021/11/17 13:10:34;;;;;;;8.82;1.85;;;10.70;99.90;;;;;;6235102;22;20036;-63
2021/11/17 13:13:09;;;;;;;17.75;2.50;;;10.70;99.90;;;;;;6239299;22;20012;-63
2021/11/17 13:15:59;;;;;;;9.20;1.50;;;10.70;99.90;;;;;;6241371;22;20103;-62
2021/11/17 13:18:34;;;;;;;19.70;1.90;;;10.60;99.90;;;;;;6239315;22;20091;-62
2021/11/17 13:21:34;;;;;;;17.58;1.20;;;10.50;99.90;;;;;;6241257;22;20032;-62
2021/11/17 13:23:59;;;;;;;16.75;2.75;;;10.50;99.90;;;;;;6242236;22;20004;-62
2021/11/17 13:26:31;;;;;;;10.55;1.42;;;10.50;99.90;;;;;;6241099;22;20046;-63
2021/11/17 13:29:45;;;;;;;15.57;2.67;;;10.60;99.90;;;;;;6241432;22;20720;-63
2021/11/17 13:32:14;;;;;;;10.10;1.58;;;10.60;99.90;;;;;;6240815;22;20410;-63
2021/11/17 13:34:42;;;;;;;8.20;1.00;;;10.60;99.90;;;;;;6241336;22;20381;-63
2021/11/17 13:37:22;;;;;;;8.48;1.88;;;10.70;99.90;;;;;;6241541;22;20019;-62
2021/11/17 13:40:06;;;;;;;8.10;1.75;;;10.70;99.90;;;;;;6241413;22;20012;-62
2021/11/17 13:42:32;;;;;;;13.35;1.38;;;10.80;99.90;;;;;;6240345;22;20020;-62
2021/11/17 13:44:59;;;;;;;11.32;1.88;;;10.80;99.90;;;;;;6239335;22;20020;-62
2021/11/17 13:47:28;;;;;;;10.55;1.05;;;10.80;99.90;;;;;;6241686;22;20668;-62
2021/11/17 13:49:56;;;;;;;14.55;1.27;;;10.90;99.90;;;;;;6241868;22;20011;-62
2021/11/17 13:52:26;;;;;;;10.05;1.30;;;10.90;99.90;;;;;;6240139;22;20005;-67
2021/11/17 13:54:52;;;;;;;6.60;1.15;;;10.90;99.90;;;;;;6241661;22;20016;-61
2021/11/17 13:57:17;;;;;;;9.20;1.30;;;10.90;99.90;;;;;;6238466;22;20394;-62
2021/11/17 13:59:44;;;;;;;11.48;1.40;;;10.90;99.90;;;;;;6241471;22;20019;-62
2021/11/17 14:02:11;;;;;;;6.72;0.98;;;10.90;99.90;;;;;;6240734;22;20035;-63
2021/11/17 14:04:37;;;;;;;8.73;1.25;;;11.00;99.90;;;;;;6241364;22;20050;-62
2021/11/17 14:07:04;;;;;;;9.70;1.58;;;10.90;99.90;;;;;;6241246;22;20011;-62
2021/11/17 14:09:30;;;;;;;9.65;1.40;;;10.80;99.90;;;;;;6240534;22;20008;-62
2021/11/17 14:11:57;;;;;;;16.02;2.70;;;10.90;99.90;;;;;;6240963;22;20346;-62
2021/11/17 14:14:23;;;;;;;11.05;2.03;;;11.00;99.90;;;;;;6241194;22;20012;-63
2021/11/17 14:16:49;;;;;;;14.38;2.15;;;11.00;99.90;;;;;;6241906;22;20010;-62
2021/11/17 14:19:15;;;;;;;8.50;1.98;;;11.00;99.90;;;;;;6241539;22;20020;-66
2021/11/17 14:21:42;;;;;;;11.70;1.60;;;11.00;99.90;;;;;;6241843;22;20008;-64
2021/11/17 14:24:09;;;;;;;6.85;1.33;;;10.90;99.90;;;;;;6240757;22;20008;-62
2021/11/17 14:26:35;;;;;;;7.07;1.58;;;10.80;99.90;;;;;;6240569;22;20135;-62
2021/11/17 14:29:05;;;;;;;8.38;1.52;;;10.80;99.90;;;;;;6240973;22;20005;-62
2021/11/17 14:31:35;;;;;;;6.32;1.45;;;10.70;99.90;;;;;;6239616;22;20012;-62
2021/11/17 14:34:01;;;;;;;11.85;1.13;;;10.70;99.90;;;;;;6239912;22;20473;-63
2021/11/17 14:36:31;;;;;;;14.00;1.85;;;10.70;99.90;;;;;;6240153;22;20320;-62
2021/11/17 14:39:00;;;;;;;10.50;1.60;;;10.60;99.90;;;;;;6240690;22;20015;-63
2021/11/17 14:41:26;;;;;;;7.95;1.27;;;10.50;99.90;;;;;;6239590;22;20425;-62
2021/11/17 14:43:52;;;;;;;13.30;1.83;;;10.50;99.90;;;;;;6241340;22;20523;-62
2021/11/17 14:46:17;;;;;;;7.85;1.10;;;10.50;99.90;;;;;;6240433;22;20038;-62
2021/11/17 14:48:44;;;;;;;9.80;2.03;;;10.60;99.90;;;;;;6239277;23;20087;-63
2021/11/17 14:51:12;;;;;;;10.10;1.42;;;10.70;99.90;;;;;;6237645;22;20316;-63
2021/11/17 14:53:43;;;;;;;7.13;0.88;;;10.70;99.90;;;;;;6238874;22;20012;-62
2021/11/17 14:56:11;;;;;;;6.13;1.02;;;10.70;99.90;;;;;;6236794;22;20008;-63
2021/11/17 14:58:36;;;;;;;10.25;0.93;;;10.60;99.90;;;;;;6239100;22;20094;-62
2021/11/17 15:01:07;;;;;;;7.28;1.10;;;10.60;99.90;;;;;;6239425;22;20410;-62
2021/11/17 15:03:33;;;;;;;8.00;1.52;;;10.60;99.90;;;;;;6236560;22;20038;-63
2021/11/17 15:05:59;;;;;;;8.90;1.20;;;10.60;99.90;;;;;;6237520;22;20008;-61
2021/11/17 15:08:24;;;;;;;5.82;1.10;;;10.50;99.90;;;;;;6238975;22;20066;-62
2021/11/17 15:10:50;;;;;;;5.18;1.00;;;10.40;99.90;;;;;;6239437;22;20024;-63
2021/11/17 15:13:16;;;;;;;10.00;1.17;;;10.30;99.90;;;;;;6238483;22;20472;-63
2021/11/17 15:15:46;;;;;;;5.78;0.93;;;10.30;99.90;;;;;;6237253;23;20063;-63
2021/11/17 15:18:11;;;;;;;11.55;1.88;;;10.30;99.90;;;;;;6236577;22;20447;-62
2021/11/17 15:20:38;;;;;;;13.38;1.48;;;10.10;99.90;;;;;;6238718;22;20092;-63
2021/11/17 15:23:06;;;;;;;14.75;2.30;;;10.10;99.90;;;;;;6238341;22;20489;-62
2021/11/17 15:25:35;;;;;;;7.85;1.10;;;10.00;99.90;;;;;;6237257;22;20020;-64
2021/11/17 15:28:14;;;;;;;15.70;1.73;;;9.90;99.90;;;;;;6239201;22;20077;-62
2021/11/17 15:30:43;;;;;;;8.00;0.90;;;9.80;99.90;;;;;;6236796;22;20020;-62
2021/11/17 15:33:09;;;;;;;11.25;1.65;;;9.80;99.90;;;;;;6238444;22;20039;-62
2021/11/17 15:35:35;;;;;;;8.95;1.58;;;9.80;99.90;;;;;;6239106;22;20008;-62
2021/11/17 15:38:03;;;;;;;7.45;1.00;;;9.70;99.90;;;;;;6237101;22;20020;-63
2021/11/17 15:40:32;;;;;;;7.55;1.45;;;9.60;99.90;;;;;;6239074;22;20001;-62
2021/11/17 15:42:59;;;;;;;13.50;2.20;;;9.50;99.90;;;;;;6236546;22;20536;-63
2021/11/17 15:45:25;;;;;;;5.97;1.08;;;9.50;99.90;;;;;;6238492;22;20028;-63
2021/11/17 15:47:52;;;;;;;9.38;1.40;;;9.40;99.90;;;;;;6240300;22;20004;-64
2021/11/17 15:50:22;;;;;;;9.05;1.40;;;9.50;99.90;;;;;;6237273;22;20024;-62